sensor_id;sensor_type;location;lat;lon;timestamp;temperature;humidity
65752;DHT22;52486;51.098;13.770;2023-04-25T04:17:41;21.20;74.90
65752;DHT22;52486;51.098;13.770;2023-04-25T04:20:07;20.90;77.00
65752;DHT22;52486;51.098;13.770;2023-04-25T04:22:33;21.80;76.80
65752;DHT22;52486;51.098;13.770;2023-04-25T04:24:59;21.40;75.60
65752;DHT22;52486;51.098;13.770;2023-04-25T04:32:18;22.00;73.00
65752;DHT22;52486;51.098;13.770;2023-04-25T04:34:44;23.10;75.60
65752;DHT22;52486;51.098;13.770;2023-04-25T04:37:10;22.60;65.90
65752;DHT22;52486;51.098;13.770;2023-04-25T04:39:38;22.60;70.10
65752;DHT22;52486;51.098;13.770;2023-04-25T04:42:04;22.50;78.30
65752;DHT22;52486;51.098;13.770;2023-04-25T04:44:30;22.70;70.00
65752;DHT22;52486;51.098;13.770;2023-04-25T04:46:59;22.80;73.20
65752;DHT22;52486;51.098;13.770;2023-04-25T04:49:25;22.80;70.50
65752;DHT22;52486;51.098;13.770;2023-04-25T04:51:51;24.00;80.90
65752;DHT22;52486;51.098;13.770;2023-04-25T04:54:17;22.60;77.80
65752;DHT22;52486;51.098;13.770;2023-04-25T04:56:43;22.10;77.50
65752;DHT22;52486;51.098;13.770;2023-04-25T04:59:09;23.10;68.90
65752;DHT22;52486;51.098;13.770;2023-04-25T05:01:34;24.40;79.00
65752;DHT22;52486;51.098;13.770;2023-04-25T05:04:03;21.80;78.10
65752;DHT22;52486;51.098;13.770;2023-04-25T05:06:29;23.20;78.90
65752;DHT22;52486;51.098;13.770;2023-04-25T05:08:58;23.10;69.50
65752;DHT22;52486;51.098;13.770;2023-04-25T05:11:25;23.10;70.80
65752;DHT22;52486;51.098;13.770;2023-04-25T05:13:54;23.20;70.20
65752;DHT22;52486;51.098;13.770;2023-04-25T05:16:20;23.10;70.10
65752;DHT22;52486;51.098;13.770;2023-04-25T05:18:46;22.20;78.30
65752;DHT22;52486;51.098;13.770;2023-04-25T05:21:12;23.40;69.50
65752;DHT22;52486;51.098;13.770;2023-04-25T05:23:38;23.30;69.60
65752;DHT22;52486;51.098;13.770;2023-04-25T05:26:04;21.80;79.10
65752;DHT22;52486;51.098;13.770;2023-04-25T05:28:30;23.00;80.40
65752;DHT22;52486;51.098;13.770;2023-04-25T05:30:56;21.70;80.70
65752;DHT22;52486;51.098;13.770;2023-04-25T05:35:49;23.20;76.10
65752;DHT22;52486;51.098;13.770;2023-04-25T05:38:15;22.10;75.20
65752;DHT22;52486;51.098;13.770;2023-04-25T05:40:41;21.30;73.10
65752;DHT22;52486;51.098;13.770;2023-04-25T05:43:07;21.00;72.40
65752;DHT22;52486;51.098;13.770;2023-04-25T05:50:25;20.50;74.40
65752;DHT22;52486;51.098;13.770;2023-04-25T05:52:51;20.80;72.70
65752;DHT22;52486;51.098;13.770;2023-04-25T05:55:16;20.50;71.70
65752;DHT22;52486;51.098;13.770;2023-04-25T05:57:42;20.50;72.40
65752;DHT22;52486;51.098;13.770;2023-04-25T06:00:11;20.70;71.70
65752;DHT22;52486;51.098;13.770;2023-04-25T06:05:03;19.90;68.90
65752;DHT22;52486;51.098;13.770;2023-04-25T06:07:29;20.90;58.60
65752;DHT22;52486;51.098;13.770;2023-04-25T06:09:56;20.50;71.30
65752;DHT22;52486;51.098;13.770;2023-04-25T06:14:48;19.60;72.40
65752;DHT22;52486;51.098;13.770;2023-04-25T06:19:39;19.40;71.20
65752;DHT22;52486;51.098;13.770;2023-04-25T06:22:06;19.80;71.00
65752;DHT22;52486;51.098;13.770;2023-04-25T06:24:33;19.40;62.80
65752;DHT22;52486;51.098;13.770;2023-04-25T06:26:58;19.50;72.50
65752;DHT22;52486;51.098;13.770;2023-04-25T06:31:50;19.40;74.50
65752;DHT22;52486;51.098;13.770;2023-04-25T06:36:43;18.90;74.00
65752;DHT22;52486;51.098;13.770;2023-04-25T06:41:36;19.50;70.90
65752;DHT22;52486;51.098;13.770;2023-04-25T06:46:28;22.00;70.30
65752;DHT22;52486;51.098;13.770;2023-04-25T06:53:46;22.40;70.70
65752;DHT22;52486;51.098;13.770;2023-04-25T06:58:37;20.80;70.40
65752;DHT22;52486;51.098;13.770;2023-04-25T07:01:03;20.70;70.90
65752;DHT22;52486;51.098;13.770;2023-04-25T07:03:29;20.80;70.80
65752;DHT22;52486;51.098;13.770;2023-04-25T07:05:54;21.00;70.40
65752;DHT22;52486;51.098;13.770;2023-04-25T07:08:20;21.80;72.20
65752;DHT22;52486;51.098;13.770;2023-04-25T07:13:12;23.50;73.70
65752;DHT22;52486;51.098;13.770;2023-04-25T07:15:38;21.20;71.10
65752;DHT22;52486;51.098;13.770;2023-04-25T07:30:15;22.20;70.80
65752;DHT22;52486;51.098;13.770;2023-04-25T07:35:07;22.30;68.90
65752;DHT22;52486;51.098;13.770;2023-04-25T07:37:36;23.00;59.30
65752;DHT22;52486;51.098;13.770;2023-04-25T07:40:03;23.30;60.00
65752;DHT22;52486;51.098;13.770;2023-04-25T07:47:21;24.10;69.70
65752;DHT22;52486;51.098;13.770;2023-04-25T07:49:47;22.80;68.40
65752;DHT22;52486;51.098;13.770;2023-04-25T07:52:13;23.60;68.10
65752;DHT22;52486;51.098;13.770;2023-04-25T07:54:39;23.70;69.40
65752;DHT22;52486;51.098;13.770;2023-04-25T07:57:06;22.80;60.90
65752;DHT22;52486;51.098;13.770;2023-04-25T07:59:32;23.20;73.90
65752;DHT22;52486;51.098;13.770;2023-04-25T08:01:58;25.20;65.70
65752;DHT22;52486;51.098;13.770;2023-04-25T08:04:25;22.70;70.10
65752;DHT22;52486;51.098;13.770;2023-04-25T08:06:51;25.00;70.80
65752;DHT22;52486;51.098;13.770;2023-04-25T08:09:18;23.20;69.80
65752;DHT22;52486;51.098;13.770;2023-04-25T08:14:10;23.90;59.40
65752;DHT22;52486;51.098;13.770;2023-04-25T08:19:03;22.90;78.10
65752;DHT22;52486;51.098;13.770;2023-04-25T08:21:29;23.10;77.10
65752;DHT22;52486;51.098;13.770;2023-04-25T08:26:22;23.80;64.10
65752;DHT22;52486;51.098;13.770;2023-04-25T08:28:48;23.60;77.30
65752;DHT22;52486;51.098;13.770;2023-04-25T08:33:40;24.00;77.80
65752;DHT22;52486;51.098;13.770;2023-04-25T08:36:13;24.20;77.00
65752;DHT22;52486;51.098;13.770;2023-04-25T08:38:38;24.30;74.90
65752;DHT22;52486;51.098;13.770;2023-04-25T08:41:05;24.70;74.30
65752;DHT22;52486;51.098;13.770;2023-04-25T08:48:28;23.20;68.90
65752;DHT22;52486;51.098;13.770;2023-04-25T08:53:32;23.80;68.40
65752;DHT22;52486;51.098;13.770;2023-04-25T08:56:00;24.10;68.40
65752;DHT22;52486;51.098;13.770;2023-04-25T09:00:55;25.30;64.50
65752;DHT22;52486;51.098;13.770;2023-04-25T09:05:47;25.70;71.20
65752;DHT22;52486;51.098;13.770;2023-04-25T09:43:25;24.20;65.00
65752;DHT22;52486;51.098;13.770;2023-04-25T09:45:53;23.80;59.20
65752;DHT22;52486;51.098;13.770;2023-04-25T09:48:20;24.90;54.90
65752;DHT22;52486;51.098;13.770;2023-04-25T09:51:14;24.70;52.50
65752;DHT22;52486;51.098;13.770;2023-04-25T09:53:43;25.00;54.80
65752;DHT22;52486;51.098;13.770;2023-04-25T10:18:16;24.70;66.60
65752;DHT22;52486;51.098;13.770;2023-04-25T10:23:14;24.60;65.30
65752;DHT22;52486;51.098;13.770;2023-04-25T10:25:41;25.00;55.10
65752;DHT22;52486;51.098;13.770;2023-04-25T10:28:07;24.10;65.20
65752;DHT22;52486;51.098;13.770;2023-04-25T10:30:32;24.40;66.10
65752;DHT22;52486;51.098;13.770;2023-04-25T10:32:59;24.60;66.40
65752;DHT22;52486;51.098;13.770;2023-04-25T10:35:29;25.30;57.00
65752;DHT22;52486;51.098;13.770;2023-04-25T10:38:09;25.70;79.90
65752;DHT22;52486;51.098;13.770;2023-04-25T10:40:35;24.70;68.70
65752;DHT22;52486;51.098;13.770;2023-04-25T11:30:27;23.70;66.10
65752;DHT22;52486;51.098;13.770;2023-04-25T11:32:54;23.30;65.60
65752;DHT22;52486;51.098;13.770;2023-04-25T11:35:20;23.50;64.50
65752;DHT22;52486;51.098;13.770;2023-04-25T11:42:46;23.50;63.40
65752;DHT22;52486;51.098;13.770;2023-04-25T11:45:13;25.00;57.10
65752;DHT22;52486;51.098;13.770;2023-04-25T11:47:39;24.00;66.90
65752;DHT22;52486;51.098;13.770;2023-04-25T11:50:07;23.80;67.20
65752;DHT22;52486;51.098;13.770;2023-04-25T11:55:12;23.90;66.50
65752;DHT22;52486;51.098;13.770;2023-04-25T11:57:39;24.30;56.50
65752;DHT22;52486;51.098;13.770;2023-04-25T12:00:13;24.00;66.40
65752;DHT22;52486;51.098;13.770;2023-04-25T12:02:53;25.50;68.80
65752;DHT22;52486;51.098;13.770;2023-04-25T12:05:19;23.60;67.60
65752;DHT22;52486;51.098;13.770;2023-04-25T12:07:46;24.40;57.60
65752;DHT22;52486;51.098;13.770;2023-04-25T12:10:13;24.10;58.30
65752;DHT22;52486;51.098;13.770;2023-04-25T12:12:46;23.60;69.50
65752;DHT22;52486;51.098;13.770;2023-04-25T12:15:24;23.30;76.10
65752;DHT22;52486;51.098;13.770;2023-04-25T12:20:18;23.70;74.00
65752;DHT22;52486;51.098;13.770;2023-04-25T12:25:13;23.80;86.50
65752;DHT22;52486;51.098;13.770;2023-04-25T12:27:40;25.20;77.80
65752;DHT22;52486;51.098;13.770;2023-04-25T12:30:08;23.90;67.10
65752;DHT22;52486;51.098;13.770;2023-04-25T12:32:34;24.10;75.20
65752;DHT22;52486;51.098;13.770;2023-04-25T12:56:56;24.60;71.10
65752;DHT22;52486;51.098;13.770;2023-04-25T13:01:48;24.80;70.50
65752;DHT22;52486;51.098;13.770;2023-04-25T13:04:14;24.80;73.00
65752;DHT22;52486;51.098;13.770;2023-04-25T13:09:07;24.80;72.70
65752;DHT22;52486;51.098;13.770;2023-04-25T13:13:59;24.60;68.20
65752;DHT22;52486;51.098;13.770;2023-04-25T13:28:41;24.00;78.80
65752;DHT22;52486;51.098;13.770;2023-04-25T13:31:07;24.10;70.60
65752;DHT22;52486;51.098;13.770;2023-04-25T13:33:35;24.10;70.90
65752;DHT22;52486;51.098;13.770;2023-04-25T13:36:01;24.20;73.90
65752;DHT22;52486;51.098;13.770;2023-04-25T13:55:33;24.00;73.00
65752;DHT22;52486;51.098;13.770;2023-04-25T13:57:59;23.90;69.30
65752;DHT22;52486;51.098;13.770;2023-04-25T14:00:24;24.00;69.70
65752;DHT22;52486;51.098;13.770;2023-04-25T14:02:50;23.80;68.80
65752;DHT22;52486;51.098;13.770;2023-04-25T14:05:16;23.80;68.90
65752;DHT22;52486;51.098;13.770;2023-04-25T14:07:42;24.20;68.90
65752;DHT22;52486;51.098;13.770;2023-04-25T14:17:27;24.30;72.10
65752;DHT22;52486;51.098;13.770;2023-04-25T14:19:53;24.50;73.30
65752;DHT22;52486;51.098;13.770;2023-04-25T14:22:18;24.60;72.80
65752;DHT22;52486;51.098;13.770;2023-04-25T14:29:37;24.20;74.10
65752;DHT22;52486;51.098;13.770;2023-04-25T14:32:03;24.30;68.90
65752;DHT22;52486;51.098;13.770;2023-04-25T14:34:29;24.30;66.40
65752;DHT22;52486;51.098;13.770;2023-04-25T14:36:54;24.30;66.50
65752;DHT22;52486;51.098;13.770;2023-04-25T14:39:20;23.20;75.70
65752;DHT22;52486;51.098;13.770;2023-04-25T14:41:46;24.60;66.70
65752;DHT22;52486;51.098;13.770;2023-04-25T14:44:11;24.20;65.50
65752;DHT22;52486;51.098;13.770;2023-04-25T14:46:37;24.30;65.70
65752;DHT22;52486;51.098;13.770;2023-04-25T14:49:05;24.20;66.10
65752;DHT22;52486;51.098;13.770;2023-04-25T14:51:30;24.30;68.80
65752;DHT22;52486;51.098;13.770;2023-04-25T14:53:56;24.40;70.00
65752;DHT22;52486;51.098;13.770;2023-04-25T14:56:23;24.10;70.40
65752;DHT22;52486;51.098;13.770;2023-04-25T14:58:49;24.10;70.40
65752;DHT22;52486;51.098;13.770;2023-04-25T15:01:15;24.30;70.50
65752;DHT22;52486;51.098;13.770;2023-04-25T15:03:41;24.50;68.00
65752;DHT22;52486;51.098;13.770;2023-04-25T15:06:07;24.30;67.70
65752;DHT22;52486;51.098;13.770;2023-04-25T15:08:33;24.10;67.90
65752;DHT22;52486;51.098;13.770;2023-04-25T15:10:59;24.30;67.30
65752;DHT22;52486;51.098;13.770;2023-04-25T15:18:21;23.70;53.10
65752;DHT22;52486;51.098;13.770;2023-04-25T15:20:50;23.90;52.50
65752;DHT22;52486;51.098;13.770;2023-04-25T15:23:17;22.80;62.60
65752;DHT22;52486;51.098;13.770;2023-04-25T15:25:44;22.80;62.50
65752;DHT22;52486;51.098;13.770;2023-04-25T15:33:01;25.20;64.20
65752;DHT22;52486;51.098;13.770;2023-04-25T15:40:21;23.60;53.80
65752;DHT22;52486;51.098;13.770;2023-04-25T15:42:49;23.90;62.80
65752;DHT22;52486;51.098;13.770;2023-04-25T15:45:22;24.20;50.30
65752;DHT22;52486;51.098;13.770;2023-04-25T15:47:50;25.00;63.00
65752;DHT22;52486;51.098;13.770;2023-04-25T15:52:48;24.90;61.70
65752;DHT22;52486;51.098;13.770;2023-04-25T15:55:14;23.60;52.10
65752;DHT22;52486;51.098;13.770;2023-04-25T15:57:42;23.30;61.60
65752;DHT22;52486;51.098;13.770;2023-04-25T16:00:08;24.10;61.30
65752;DHT22;52486;51.098;13.770;2023-04-25T16:02:41;22.80;60.90
65752;DHT22;52486;51.098;13.770;2023-04-25T16:05:07;24.80;62.70
65752;DHT22;52486;51.098;13.770;2023-04-25T16:07:34;24.90;62.30
65752;DHT22;52486;51.098;13.770;2023-04-25T16:10:00;23.10;60.90
65752;DHT22;52486;51.098;13.770;2023-04-25T16:14:53;23.20;61.80
65752;DHT22;52486;51.098;13.770;2023-04-25T16:19:46;23.30;58.40
65752;DHT22;52486;51.098;13.770;2023-04-25T16:24:41;23.10;61.80
65752;DHT22;52486;51.098;13.770;2023-04-25T16:29:32;25.00;63.10
65752;DHT22;52486;51.098;13.770;2023-04-25T16:34:24;23.40;58.00
65752;DHT22;52486;51.098;13.770;2023-04-25T16:41:49;23.80;63.40
65752;DHT22;52486;51.098;13.770;2023-04-25T16:51:33;22.60;64.60
65752;DHT22;52486;51.098;13.770;2023-04-25T16:53:59;22.80;65.10
65752;DHT22;52486;51.098;13.770;2023-04-25T16:56:25;23.00;53.70
65752;DHT22;52486;51.098;13.770;2023-04-25T16:58:51;22.30;64.20
65752;DHT22;52486;51.098;13.770;2023-04-25T17:01:17;22.90;65.10
65752;DHT22;52486;51.098;13.770;2023-04-25T17:03:46;23.20;60.70
65752;DHT22;52486;51.098;13.770;2023-04-25T17:06:12;22.20;64.60
65752;DHT22;52486;51.098;13.770;2023-04-25T17:08:38;23.70;56.00
65752;DHT22;52486;51.098;13.770;2023-04-25T17:11:04;22.50;65.40
65752;DHT22;52486;51.098;13.770;2023-04-25T17:15:58;22.40;65.40
65752;DHT22;52486;51.098;13.770;2023-04-25T17:18:24;23.30;66.10
65752;DHT22;52486;51.098;13.770;2023-04-25T17:20:50;21.90;65.20
65752;DHT22;52486;51.098;13.770;2023-04-25T17:23:16;23.40;67.20
65752;DHT22;52486;51.098;13.770;2023-04-25T17:28:09;23.70;66.40
65752;DHT22;52486;51.098;13.770;2023-04-25T17:35:28;22.50;58.40
65752;DHT22;52486;51.098;13.770;2023-04-25T17:37:54;21.60;63.20
65752;DHT22;52486;51.098;13.770;2023-04-25T17:42:45;21.70;69.30
65752;DHT22;52486;51.098;13.770;2023-04-25T17:47:38;21.40;61.90
65752;DHT22;52486;51.098;13.770;2023-04-25T17:50:06;21.30;61.40
65752;DHT22;52486;51.098;13.770;2023-04-25T17:52:32;22.20;77.30
65752;DHT22;52486;51.098;13.770;2023-04-25T17:54:58;21.80;78.80
65752;DHT22;52486;51.098;13.770;2023-04-25T17:57:23;22.30;78.00
65752;DHT22;52486;51.098;13.770;2023-04-25T18:14:28;21.40;83.60
65752;DHT22;52486;51.098;13.770;2023-04-25T18:24:19;21.20;82.30
65752;DHT22;52486;51.098;13.770;2023-04-25T18:29:16;21.40;75.90
65752;DHT22;52486;51.098;13.770;2023-04-25T18:31:43;21.30;75.00
65752;DHT22;52486;51.098;13.770;2023-04-25T18:34:09;21.90;77.20
65752;DHT22;52486;51.098;13.770;2023-04-25T18:36:36;21.70;75.00
65752;DHT22;52486;51.098;13.770;2023-04-25T18:39:03;21.80;74.90
65752;DHT22;52486;51.098;13.770;2023-04-25T18:41:34;21.70;75.00
65752;DHT22;52486;51.098;13.770;2023-04-25T18:48:58;21.70;78.50
65752;DHT22;52486;51.098;13.770;2023-04-25T18:51:25;21.80;77.40
65752;DHT22;52486;51.098;13.770;2023-04-25T18:53:56;22.00;76.50
65752;DHT22;52486;51.098;13.770;2023-04-25T18:56:22;21.60;77.80
65752;DHT22;52486;51.098;13.770;2023-04-25T18:58:50;21.50;77.30
65752;DHT22;52486;51.098;13.770;2023-04-25T19:01:18;21.50;75.10
65752;DHT22;52486;51.098;13.770;2023-04-25T19:03:43;21.30;74.20
65752;DHT22;52486;51.098;13.770;2023-04-25T19:06:10;21.40;74.20
65752;DHT22;52486;51.098;13.770;2023-04-25T19:08:36;21.50;74.00
65752;DHT22;52486;51.098;13.770;2023-04-25T19:13:29;21.20;71.70
65752;DHT22;52486;51.098;13.770;2023-04-25T19:15:56;21.60;73.70
65752;DHT22;52486;51.098;13.770;2023-04-25T19:18:23;21.70;74.10
65752;DHT22;52486;51.098;13.770;2023-04-25T19:30:37;21.80;77.30
65752;DHT22;52486;51.098;13.770;2023-04-25T19:33:03;22.10;80.30
65752;DHT22;52486;51.098;13.770;2023-04-25T19:35:28;20.80;80.10
65752;DHT22;52486;51.098;13.770;2023-04-25T19:37:57;22.80;79.40
65752;DHT22;52486;51.098;13.770;2023-04-25T19:40:24;21.00;80.20
65752;DHT22;52486;51.098;13.770;2023-04-25T19:42:50;22.00;71.70
65752;DHT22;52486;51.098;13.770;2023-04-25T19:45:16;22.10;74.20
65752;DHT22;52486;51.098;13.770;2023-04-25T19:47:42;22.00;74.30
65752;DHT22;52486;51.098;13.770;2023-04-25T19:50:08;21.80;73.90
65752;DHT22;52486;51.098;13.770;2023-04-25T19:52:35;22.00;75.10
65752;DHT22;52486;51.098;13.770;2023-04-25T19:55:01;22.00;75.50
65752;DHT22;52486;51.098;13.770;2023-04-25T19:57:32;22.00;75.70
65752;DHT22;52486;51.098;13.770;2023-04-25T19:59:59;22.00;73.70
65752;DHT22;52486;51.098;13.770;2023-04-25T20:02:26;22.10;75.70
65752;DHT22;52486;51.098;13.770;2023-04-25T20:04:52;22.50;75.60
65752;DHT22;52486;51.098;13.770;2023-04-25T20:07:18;22.00;76.00
65752;DHT22;52486;51.098;13.770;2023-04-25T20:12:12;22.00;76.70
65752;DHT22;52486;51.098;13.770;2023-04-25T20:14:38;22.20;76.50
65752;DHT22;52486;51.098;13.770;2023-04-25T20:17:03;22.30;76.70
65752;DHT22;52486;51.098;13.770;2023-04-25T20:19:30;22.20;76.20
65752;DHT22;52486;51.098;13.770;2023-04-25T20:21:57;22.40;76.50
65752;DHT22;52486;51.098;13.770;2023-04-25T20:24:23;22.30;76.60
65752;DHT22;52486;51.098;13.770;2023-04-25T20:26:49;22.30;76.80
65752;DHT22;52486;51.098;13.770;2023-04-25T20:29:14;22.30;76.80
65752;DHT22;52486;51.098;13.770;2023-04-25T20:31:40;22.20;77.00
65752;DHT22;52486;51.098;13.770;2023-04-25T20:34:07;22.60;77.30
65752;DHT22;52486;51.098;13.770;2023-04-25T20:36:33;22.00;76.70
65752;DHT22;52486;51.098;13.770;2023-04-25T20:38:59;22.10;76.50
65752;DHT22;52486;51.098;13.770;2023-04-25T20:41:26;22.20;76.30
65752;DHT22;52486;51.098;13.770;2023-04-25T20:43:52;22.30;76.40
65752;DHT22;52486;51.098;13.770;2023-04-25T20:46:18;22.20;76.00
65752;DHT22;52486;51.098;13.770;2023-04-25T20:51:10;22.00;73.90
65752;DHT22;52486;51.098;13.770;2023-04-25T20:53:37;22.20;75.00
65752;DHT22;52486;51.098;13.770;2023-04-25T20:56:03;22.00;74.90
65752;DHT22;52486;51.098;13.770;2023-04-25T20:58:30;21.90;74.70
65752;DHT22;52486;51.098;13.770;2023-04-25T21:00:57;22.40;74.80
65752;DHT22;52486;51.098;13.770;2023-04-25T21:03:23;22.50;74.80
65752;DHT22;52486;51.098;13.770;2023-04-25T21:05:50;22.30;74.80
65752;DHT22;52486;51.098;13.770;2023-04-25T21:08:15;22.40;74.80
65752;DHT22;52486;51.098;13.770;2023-04-25T21:10:41;22.50;74.70
65752;DHT22;52486;51.098;13.770;2023-04-25T21:13:07;22.30;74.70
65752;DHT22;52486;51.098;13.770;2023-04-25T21:15:33;22.40;74.90
65752;DHT22;52486;51.098;13.770;2023-04-25T21:17:58;22.10;74.60
65752;DHT22;52486;51.098;13.770;2023-04-25T21:20:24;22.30;74.70
65752;DHT22;52486;51.098;13.770;2023-04-25T21:25:17;22.20;73.10
65752;DHT22;52486;51.098;13.770;2023-04-25T21:27:49;22.50;74.60
65752;DHT22;52486;51.098;13.770;2023-04-25T21:30:16;22.40;74.70
65752;DHT22;52486;51.098;13.770;2023-04-25T21:32:46;22.40;74.60
65752;DHT22;52486;51.098;13.770;2023-04-25T21:35:13;22.20;72.30
65752;DHT22;52486;51.098;13.770;2023-04-25T21:37:39;22.40;74.50
65752;DHT22;52486;51.098;13.770;2023-04-25T21:40:07;22.60;74.60
65752;DHT22;52486;51.098;13.770;2023-04-25T21:42:34;22.10;74.00
65752;DHT22;52486;51.098;13.770;2023-04-25T21:45:01;22.40;74.50
65752;DHT22;52486;51.098;13.770;2023-04-25T21:47:28;22.20;74.30
65752;DHT22;52486;51.098;13.770;2023-04-25T21:52:20;22.10;71.90
65752;DHT22;52486;51.098;13.770;2023-04-25T21:54:46;22.10;73.00
65752;DHT22;52486;51.098;13.770;2023-04-25T21:57:11;22.20;73.70
65752;DHT22;52486;51.098;13.770;2023-04-25T21:59:37;22.20;73.70
65752;DHT22;52486;51.098;13.770;2023-04-25T22:02:03;22.30;73.70
65752;DHT22;52486;51.098;13.770;2023-04-25T22:04:28;22.40;73.90
65752;DHT22;52486;51.098;13.770;2023-04-25T22:06:54;22.70;74.10
65752;DHT22;52486;51.098;13.770;2023-04-25T22:09:19;22.10;73.60
65752;DHT22;52486;51.098;13.770;2023-04-25T22:11:45;22.40;73.80
65752;DHT22;52486;51.098;13.770;2023-04-25T22:14:11;22.10;73.80
65752;DHT22;52486;51.098;13.770;2023-04-25T22:16:37;22.10;73.90
65752;DHT22;52486;51.098;13.770;2023-04-25T22:19:03;22.30;73.80
65752;DHT22;52486;51.098;13.770;2023-04-25T22:21:29;22.20;73.80
65752;DHT22;52486;51.098;13.770;2023-04-25T22:23:55;22.10;73.80
65752;DHT22;52486;51.098;13.770;2023-04-25T22:26:22;22.40;73.80
65752;DHT22;52486;51.098;13.770;2023-04-25T22:28:49;22.20;71.50
65752;DHT22;52486;51.098;13.770;2023-04-25T22:31:16;22.90;74.10
65752;DHT22;52486;51.098;13.770;2023-04-25T22:33:41;22.30;73.90
65752;DHT22;52486;51.098;13.770;2023-04-25T22:36:09;22.40;73.60
65752;DHT22;52486;51.098;13.770;2023-04-25T22:38:34;22.10;73.50
65752;DHT22;52486;51.098;13.770;2023-04-25T22:41:00;22.30;73.70
65752;DHT22;52486;51.098;13.770;2023-04-25T22:43:26;22.10;73.70
65752;DHT22;52486;51.098;13.770;2023-04-25T22:48:21;22.00;71.10
65752;DHT22;52486;51.098;13.770;2023-04-25T22:50:46;22.30;73.20
65752;DHT22;52486;51.098;13.770;2023-04-25T22:53:12;22.30;73.20
65752;DHT22;52486;51.098;13.770;2023-04-25T22:55:38;22.40;73.30
65752;DHT22;52486;51.098;13.770;2023-04-25T22:58:04;22.30;73.20
65752;DHT22;52486;51.098;13.770;2023-04-25T23:00:33;22.40;73.10
65752;DHT22;52486;51.098;13.770;2023-04-25T23:02:58;22.50;73.50
65752;DHT22;52486;51.098;13.770;2023-04-25T23:07:50;22.20;71.70
65752;DHT22;52486;51.098;13.770;2023-04-25T23:10:16;22.20;73.10
65752;DHT22;52486;51.098;13.770;2023-04-25T23:12:43;22.10;72.90
65752;DHT22;52486;51.098;13.770;2023-04-25T23:15:09;22.10;73.10
65752;DHT22;52486;51.098;13.770;2023-04-25T23:17:35;22.10;72.90
65752;DHT22;52486;51.098;13.770;2023-04-25T23:20:01;22.30;72.90
65752;DHT22;52486;51.098;13.770;2023-04-25T23:22:30;22.30;73.00
65752;DHT22;52486;51.098;13.770;2023-04-25T23:24:56;22.30;73.20
65752;DHT22;52486;51.098;13.770;2023-04-25T23:27:21;22.40;73.20
65752;DHT22;52486;51.098;13.770;2023-04-25T23:29:51;22.30;73.10
65752;DHT22;52486;51.098;13.770;2023-04-25T23:32:21;22.30;72.10
65752;DHT22;52486;51.098;13.770;2023-04-25T23:34:47;22.30;72.90
65752;DHT22;52486;51.098;13.770;2023-04-25T23:37:13;22.10;72.90
65752;DHT22;52486;51.098;13.770;2023-04-25T23:39:38;22.50;73.20
65752;DHT22;52486;51.098;13.770;2023-04-25T23:42:04;22.20;73.10
65752;DHT22;52486;51.098;13.770;2023-04-25T23:44:30;22.10;72.90
65752;DHT22;52486;51.098;13.770;2023-04-25T23:46:56;22.20;72.80
65752;DHT22;52486;51.098;13.770;2023-04-25T23:49:22;22.40;73.80
65752;DHT22;52486;51.098;13.770;2023-04-25T23:51:47;23.40;71.60
65752;DHT22;52486;51.098;13.770;2023-04-25T23:54:13;22.20;72.90
65752;DHT22;52486;51.098;13.770;2023-04-25T23:56:39;22.40;72.80
